sensor_id;sensor_type;location;lat;lon;timestamp;temperature;humidity
57660;DHT22;43485;45.680;15.702;2024-03-02T00:01:18;7.50;70.30
57660;DHT22;43485;45.680;15.702;2024-03-02T00:03:44;7.60;69.60
57660;DHT22;43485;45.680;15.702;2024-03-02T00:06:10;7.60;70.20
57660;DHT22;43485;45.680;15.702;2024-03-02T00:08:37;7.60;70.10
57660;DHT22;43485;45.680;15.702;2024-03-02T00:11:03;7.60;69.60
57660;DHT22;43485;45.680;15.702;2024-03-02T00:13:29;7.60;70.50
57660;DHT22;43485;45.680;15.702;2024-03-02T00:15:57;7.60;70.30
57660;DHT22;43485;45.680;15.702;2024-03-02T00:21:08;7.50;70.60
57660;DHT22;43485;45.680;15.702;2024-03-02T00:23:38;7.50;70.10
57660;DHT22;43485;45.680;15.702;2024-03-02T00:26:04;7.50;70.80
57660;DHT22;43485;45.680;15.702;2024-03-02T00:28:32;7.50;70.70
57660;DHT22;43485;45.680;15.702;2024-03-02T00:33:45;7.50;70.80
57660;DHT22;43485;45.680;15.702;2024-03-02T00:36:12;7.40;70.90
57660;DHT22;43485;45.680;15.702;2024-03-02T00:38:42;7.40;70.70
57660;DHT22;43485;45.680;15.702;2024-03-02T00:41:15;7.40;70.50
57660;DHT22;43485;45.680;15.702;2024-03-02T00:43:43;7.40;70.60
57660;DHT22;43485;45.680;15.702;2024-03-02T00:46:13;7.40;70.50
57660;DHT22;43485;45.680;15.702;2024-03-02T00:51:27;7.50;69.90
57660;DHT22;43485;45.680;15.702;2024-03-02T00:53:58;7.50;69.70
57660;DHT22;43485;45.680;15.702;2024-03-02T00:56:25;7.40;69.40
57660;DHT22;43485;45.680;15.702;2024-03-02T00:58:51;7.30;69.80
57660;DHT22;43485;45.680;15.702;2024-03-02T01:01:18;7.30;69.30
57660;DHT22;43485;45.680;15.702;2024-03-02T01:03:45;7.20;69.90
57660;DHT22;43485;45.680;15.702;2024-03-02T01:06:11;7.20;70.20
57660;DHT22;43485;45.680;15.702;2024-03-02T01:08:37;7.10;70.20
57660;DHT22;43485;45.680;15.702;2024-03-02T01:11:04;7.10;70.20
57660;DHT22;43485;45.680;15.702;2024-03-02T01:13:30;7.00;70.20
57660;DHT22;43485;45.680;15.702;2024-03-02T01:15:56;7.00;70.30
57660;DHT22;43485;45.680;15.702;2024-03-02T01:18:23;7.00;70.30
57660;DHT22;43485;45.680;15.702;2024-03-02T01:20:49;7.00;70.50
57660;DHT22;43485;45.680;15.702;2024-03-02T01:23:18;6.90;70.30
57660;DHT22;43485;45.680;15.702;2024-03-02T01:25:45;6.90;70.30
57660;DHT22;43485;45.680;15.702;2024-03-02T01:28:12;6.90;70.50
57660;DHT22;43485;45.680;15.702;2024-03-02T01:30:38;6.90;70.90
57660;DHT22;43485;45.680;15.702;2024-03-02T01:33:04;7.00;70.80
57660;DHT22;43485;45.680;15.702;2024-03-02T01:35:31;7.00;70.90
57660;DHT22;43485;45.680;15.702;2024-03-02T01:37:57;7.00;70.50
57660;DHT22;43485;45.680;15.702;2024-03-02T01:40:24;7.00;71.10
57660;DHT22;43485;45.680;15.702;2024-03-02T01:43:10;7.00;71.90
57660;DHT22;43485;45.680;15.702;2024-03-02T01:45:35;7.00;72.30
57660;DHT22;43485;45.680;15.702;2024-03-02T01:48:04;6.90;71.90
57660;DHT22;43485;45.680;15.702;2024-03-02T01:53:15;6.90;72.50
57660;DHT22;43485;45.680;15.702;2024-03-02T01:55:41;6.90;72.60
57660;DHT22;43485;45.680;15.702;2024-03-02T01:58:08;6.90;72.80
57660;DHT22;43485;45.680;15.702;2024-03-02T02:00:34;6.90;72.70
57660;DHT22;43485;45.680;15.702;2024-03-02T02:03:00;6.90;72.70
57660;DHT22;43485;45.680;15.702;2024-03-02T02:05:26;6.90;72.40
57660;DHT22;43485;45.680;15.702;2024-03-02T02:07:52;6.90;72.40
57660;DHT22;43485;45.680;15.702;2024-03-02T02:10:18;7.00;72.70
57660;DHT22;43485;45.680;15.702;2024-03-02T02:12:44;7.00;72.50
57660;DHT22;43485;45.680;15.702;2024-03-02T02:17:55;7.00;72.30
57660;DHT22;43485;45.680;15.702;2024-03-02T02:20:22;7.00;72.50
57660;DHT22;43485;45.680;15.702;2024-03-02T02:25:35;7.10;73.10
57660;DHT22;43485;45.680;15.702;2024-03-02T02:28:01;7.00;72.60
57660;DHT22;43485;45.680;15.702;2024-03-02T02:33:11;7.00;73.70
57660;DHT22;43485;45.680;15.702;2024-03-02T02:35:37;7.00;73.60
57660;DHT22;43485;45.680;15.702;2024-03-02T02:38:03;7.00;74.60
57660;DHT22;43485;45.680;15.702;2024-03-02T02:40:29;7.00;73.30
57660;DHT22;43485;45.680;15.702;2024-03-02T02:42:56;7.00;74.20
57660;DHT22;43485;45.680;15.702;2024-03-02T02:45:22;7.00;74.10
57660;DHT22;43485;45.680;15.702;2024-03-02T02:47:49;7.10;74.80
57660;DHT22;43485;45.680;15.702;2024-03-02T02:50:15;7.00;74.70
57660;DHT22;43485;45.680;15.702;2024-03-02T02:52:41;7.00;74.90
57660;DHT22;43485;45.680;15.702;2024-03-02T02:55:08;7.10;74.70
57660;DHT22;43485;45.680;15.702;2024-03-02T02:57:35;7.10;74.20
57660;DHT22;43485;45.680;15.702;2024-03-02T03:02:48;7.20;74.10
57660;DHT22;43485;45.680;15.702;2024-03-02T03:05:14;7.20;74.40
57660;DHT22;43485;45.680;15.702;2024-03-02T03:07:41;7.20;73.70
57660;DHT22;43485;45.680;15.702;2024-03-02T03:10:09;7.20;74.10
57660;DHT22;43485;45.680;15.702;2024-03-02T03:12:35;7.20;74.00
57660;DHT22;43485;45.680;15.702;2024-03-02T03:15:02;7.20;75.50
57660;DHT22;43485;45.680;15.702;2024-03-02T03:17:29;7.30;74.90
57660;DHT22;43485;45.680;15.702;2024-03-02T03:19:55;7.20;75.10
57660;DHT22;43485;45.680;15.702;2024-03-02T03:22:21;7.30;75.60
57660;DHT22;43485;45.680;15.702;2024-03-02T03:24:47;7.20;76.10
57660;DHT22;43485;45.680;15.702;2024-03-02T03:27:13;7.10;76.30
57660;DHT22;43485;45.680;15.702;2024-03-02T03:29:39;7.10;76.10
57660;DHT22;43485;45.680;15.702;2024-03-02T03:32:05;7.00;76.60
57660;DHT22;43485;45.680;15.702;2024-03-02T03:34:32;7.00;76.80
57660;DHT22;43485;45.680;15.702;2024-03-02T03:36:58;6.90;76.90
57660;DHT22;43485;45.680;15.702;2024-03-02T03:39:24;6.90;77.50
57660;DHT22;43485;45.680;15.702;2024-03-02T03:41:50;6.80;77.90
57660;DHT22;43485;45.680;15.702;2024-03-02T03:44:16;6.80;78.40
57660;DHT22;43485;45.680;15.702;2024-03-02T03:46:42;6.60;78.70
57660;DHT22;43485;45.680;15.702;2024-03-02T03:49:08;6.60;78.50
57660;DHT22;43485;45.680;15.702;2024-03-02T03:51:34;6.60;78.70
57660;DHT22;43485;45.680;15.702;2024-03-02T03:54:00;6.50;78.50
57660;DHT22;43485;45.680;15.702;2024-03-02T03:56:26;6.50;78.20
57660;DHT22;43485;45.680;15.702;2024-03-02T03:58:52;6.60;78.50
57660;DHT22;43485;45.680;15.702;2024-03-02T04:01:18;6.60;78.40
57660;DHT22;43485;45.680;15.702;2024-03-02T04:03:44;6.70;78.30
57660;DHT22;43485;45.680;15.702;2024-03-02T04:06:10;6.70;78.50
57660;DHT22;43485;45.680;15.702;2024-03-02T04:08:36;6.70;77.70
57660;DHT22;43485;45.680;15.702;2024-03-02T04:11:02;6.80;77.20
57660;DHT22;43485;45.680;15.702;2024-03-02T04:13:29;6.80;77.10
57660;DHT22;43485;45.680;15.702;2024-03-02T04:15:55;6.80;76.90
57660;DHT22;43485;45.680;15.702;2024-03-02T04:18:21;6.80;77.30
57660;DHT22;43485;45.680;15.702;2024-03-02T04:20:47;6.80;77.10
57660;DHT22;43485;45.680;15.702;2024-03-02T04:23:12;6.80;77.10
57660;DHT22;43485;45.680;15.702;2024-03-02T04:25:38;6.80;77.30
57660;DHT22;43485;45.680;15.702;2024-03-02T04:28:04;6.80;77.10
57660;DHT22;43485;45.680;15.702;2024-03-02T04:30:30;6.90;77.20
57660;DHT22;43485;45.680;15.702;2024-03-02T04:32:56;6.90;77.20
57660;DHT22;43485;45.680;15.702;2024-03-02T04:35:22;6.90;77.20
57660;DHT22;43485;45.680;15.702;2024-03-02T04:37:48;6.90;77.10
57660;DHT22;43485;45.680;15.702;2024-03-02T04:40:14;6.90;77.10
57660;DHT22;43485;45.680;15.702;2024-03-02T04:42:40;6.90;77.10
57660;DHT22;43485;45.680;15.702;2024-03-02T04:45:06;6.90;77.30
57660;DHT22;43485;45.680;15.702;2024-03-02T04:47:32;6.90;76.70
57660;DHT22;43485;45.680;15.702;2024-03-02T04:49:58;7.00;76.70
57660;DHT22;43485;45.680;15.702;2024-03-02T04:52:24;7.00;76.60
57660;DHT22;43485;45.680;15.702;2024-03-02T04:54:50;7.00;76.60
57660;DHT22;43485;45.680;15.702;2024-03-02T04:57:34;7.00;76.20
57660;DHT22;43485;45.680;15.702;2024-03-02T05:00:00;7.10;76.00
57660;DHT22;43485;45.680;15.702;2024-03-02T05:02:26;7.10;75.90
57660;DHT22;43485;45.680;15.702;2024-03-02T05:04:52;7.10;75.80
57660;DHT22;43485;45.680;15.702;2024-03-02T05:07:18;7.10;75.70
57660;DHT22;43485;45.680;15.702;2024-03-02T05:09:44;7.10;75.60
57660;DHT22;43485;45.680;15.702;2024-03-02T05:12:10;7.10;75.60
57660;DHT22;43485;45.680;15.702;2024-03-02T05:14:54;7.10;75.00
57660;DHT22;43485;45.680;15.702;2024-03-02T05:17:21;7.10;75.40
57660;DHT22;43485;45.680;15.702;2024-03-02T05:19:47;7.10;75.60
57660;DHT22;43485;45.680;15.702;2024-03-02T05:22:13;7.10;75.70
57660;DHT22;43485;45.680;15.702;2024-03-02T05:24:39;7.10;75.80
57660;DHT22;43485;45.680;15.702;2024-03-02T05:27:05;7.20;75.70
57660;DHT22;43485;45.680;15.702;2024-03-02T05:29:32;7.20;75.60
57660;DHT22;43485;45.680;15.702;2024-03-02T05:31:58;7.10;75.70
57660;DHT22;43485;45.680;15.702;2024-03-02T05:34:24;7.10;75.90
57660;DHT22;43485;45.680;15.702;2024-03-02T05:36:50;7.10;76.00
57660;DHT22;43485;45.680;15.702;2024-03-02T05:39:16;7.20;75.70
57660;DHT22;43485;45.680;15.702;2024-03-02T05:41:42;7.20;75.80
57660;DHT22;43485;45.680;15.702;2024-03-02T05:44:07;7.00;76.10
57660;DHT22;43485;45.680;15.702;2024-03-02T05:46:33;6.90;76.70
57660;DHT22;43485;45.680;15.702;2024-03-02T05:48:59;6.90;77.00
57660;DHT22;43485;45.680;15.702;2024-03-02T05:51:26;6.90;76.70
57660;DHT22;43485;45.680;15.702;2024-03-02T05:53:52;6.90;76.00
57660;DHT22;43485;45.680;15.702;2024-03-02T05:56:18;6.90;77.00
57660;DHT22;43485;45.680;15.702;2024-03-02T05:58:44;7.00;77.20
57660;DHT22;43485;45.680;15.702;2024-03-02T06:01:28;6.90;77.10
57660;DHT22;43485;45.680;15.702;2024-03-02T06:03:55;7.00;77.00
57660;DHT22;43485;45.680;15.702;2024-03-02T06:06:22;7.00;76.60
57660;DHT22;43485;45.680;15.702;2024-03-02T06:08:48;7.10;76.60
57660;DHT22;43485;45.680;15.702;2024-03-02T06:11:14;7.00;77.10
57660;DHT22;43485;45.680;15.702;2024-03-02T06:13:40;7.00;77.20
57660;DHT22;43485;45.680;15.702;2024-03-02T06:16:06;7.10;76.80
57660;DHT22;43485;45.680;15.702;2024-03-02T06:18:32;7.10;75.90
57660;DHT22;43485;45.680;15.702;2024-03-02T06:20:58;7.00;76.50
57660;DHT22;43485;45.680;15.702;2024-03-02T06:23:23;7.10;76.80
57660;DHT22;43485;45.680;15.702;2024-03-02T06:25:50;7.20;77.40
57660;DHT22;43485;45.680;15.702;2024-03-02T06:28:16;7.20;76.10
57660;DHT22;43485;45.680;15.702;2024-03-02T06:30:41;7.10;76.10
57660;DHT22;43485;45.680;15.702;2024-03-02T06:33:09;7.20;76.50
57660;DHT22;43485;45.680;15.702;2024-03-02T06:35:35;7.20;76.20
57660;DHT22;43485;45.680;15.702;2024-03-02T06:38:01;7.20;75.80
57660;DHT22;43485;45.680;15.702;2024-03-02T06:40:27;7.20;75.70
57660;DHT22;43485;45.680;15.702;2024-03-02T06:42:53;7.30;76.70
57660;DHT22;43485;45.680;15.702;2024-03-02T06:45:19;7.30;76.70
57660;DHT22;43485;45.680;15.702;2024-03-02T06:47:44;7.40;76.50
57660;DHT22;43485;45.680;15.702;2024-03-02T06:50:11;7.50;76.00
57660;DHT22;43485;45.680;15.702;2024-03-02T06:52:37;7.60;75.10
57660;DHT22;43485;45.680;15.702;2024-03-02T06:55:03;7.70;75.70
57660;DHT22;43485;45.680;15.702;2024-03-02T06:57:29;7.70;74.70
57660;DHT22;43485;45.680;15.702;2024-03-02T06:59:55;7.80;75.20
57660;DHT22;43485;45.680;15.702;2024-03-02T07:02:24;7.90;75.30
57660;DHT22;43485;45.680;15.702;2024-03-02T07:04:52;7.90;74.90
57660;DHT22;43485;45.680;15.702;2024-03-02T07:07:19;8.00;74.80
57660;DHT22;43485;45.680;15.702;2024-03-02T07:09:45;8.00;74.80
57660;DHT22;43485;45.680;15.702;2024-03-02T07:12:11;8.00;75.10
57660;DHT22;43485;45.680;15.702;2024-03-02T07:14:36;8.00;75.20
57660;DHT22;43485;45.680;15.702;2024-03-02T07:17:36;8.10;75.10
57660;DHT22;43485;45.680;15.702;2024-03-02T07:20:02;8.20;74.10
57660;DHT22;43485;45.680;15.702;2024-03-02T07:22:32;8.20;74.20
57660;DHT22;43485;45.680;15.702;2024-03-02T07:24:58;8.30;73.60
57660;DHT22;43485;45.680;15.702;2024-03-02T07:27:24;8.40;73.80
57660;DHT22;43485;45.680;15.702;2024-03-02T07:29:50;8.50;73.60
57660;DHT22;43485;45.680;15.702;2024-03-02T07:32:16;8.60;73.50
57660;DHT22;43485;45.680;15.702;2024-03-02T07:34:42;8.70;73.40
57660;DHT22;43485;45.680;15.702;2024-03-02T07:37:08;8.80;73.20
57660;DHT22;43485;45.680;15.702;2024-03-02T07:39:34;8.90;72.80
57660;DHT22;43485;45.680;15.702;2024-03-02T07:42:00;9.00;72.40
57660;DHT22;43485;45.680;15.702;2024-03-02T07:44:26;9.10;71.60
57660;DHT22;43485;45.680;15.702;2024-03-02T07:46:52;9.30;71.90
57660;DHT22;43485;45.680;15.702;2024-03-02T07:49:18;9.40;71.60
57660;DHT22;43485;45.680;15.702;2024-03-02T07:51:44;9.70;71.10
57660;DHT22;43485;45.680;15.702;2024-03-02T07:54:10;10.00;70.40
57660;DHT22;43485;45.680;15.702;2024-03-02T07:56:36;10.20;70.20
57660;DHT22;43485;45.680;15.702;2024-03-02T07:59:02;10.40;69.40
57660;DHT22;43485;45.680;15.702;2024-03-02T08:01:29;10.50;69.40
57660;DHT22;43485;45.680;15.702;2024-03-02T08:04:14;10.50;68.80
57660;DHT22;43485;45.680;15.702;2024-03-02T08:06:40;10.50;68.20
57660;DHT22;43485;45.680;15.702;2024-03-02T08:09:06;10.50;69.00
57660;DHT22;43485;45.680;15.702;2024-03-02T08:11:35;10.50;68.60
57660;DHT22;43485;45.680;15.702;2024-03-02T08:14:02;10.40;68.10
57660;DHT22;43485;45.680;15.702;2024-03-02T08:16:28;10.50;68.00
57660;DHT22;43485;45.680;15.702;2024-03-02T08:18:54;10.50;68.10
57660;DHT22;43485;45.680;15.702;2024-03-02T08:21:23;10.60;68.60
57660;DHT22;43485;45.680;15.702;2024-03-02T08:23:50;10.60;68.30
57660;DHT22;43485;45.680;15.702;2024-03-02T08:26:16;10.70;68.50
57660;DHT22;43485;45.680;15.702;2024-03-02T08:28:42;10.70;68.30
57660;DHT22;43485;45.680;15.702;2024-03-02T08:31:07;11.00;67.70
57660;DHT22;43485;45.680;15.702;2024-03-02T08:33:34;11.20;66.60
57660;DHT22;43485;45.680;15.702;2024-03-02T08:36:00;11.40;66.30
57660;DHT22;43485;45.680;15.702;2024-03-02T08:38:26;11.60;67.10
57660;DHT22;43485;45.680;15.702;2024-03-02T08:40:52;11.90;65.70
57660;DHT22;43485;45.680;15.702;2024-03-02T08:43:19;12.00;65.20
57660;DHT22;43485;45.680;15.702;2024-03-02T08:45:45;11.80;64.50
57660;DHT22;43485;45.680;15.702;2024-03-02T08:48:12;11.90;64.80
57660;DHT22;43485;45.680;15.702;2024-03-02T08:50:38;11.80;65.80
57660;DHT22;43485;45.680;15.702;2024-03-02T08:53:04;11.80;66.00
57660;DHT22;43485;45.680;15.702;2024-03-02T08:55:30;12.00;66.10
57660;DHT22;43485;45.680;15.702;2024-03-02T08:57:56;12.00;65.90
57660;DHT22;43485;45.680;15.702;2024-03-02T09:00:22;12.10;65.40
57660;DHT22;43485;45.680;15.702;2024-03-02T09:02:48;12.10;65.50
57660;DHT22;43485;45.680;15.702;2024-03-02T09:05:14;12.20;65.60
57660;DHT22;43485;45.680;15.702;2024-03-02T09:07:40;12.10;64.80
57660;DHT22;43485;45.680;15.702;2024-03-02T09:10:07;12.20;65.60
57660;DHT22;43485;45.680;15.702;2024-03-02T09:12:34;12.20;65.30
57660;DHT22;43485;45.680;15.702;2024-03-02T09:15:00;12.30;65.10
57660;DHT22;43485;45.680;15.702;2024-03-02T09:17:27;12.20;65.30
57660;DHT22;43485;45.680;15.702;2024-03-02T09:19:53;12.20;65.30
57660;DHT22;43485;45.680;15.702;2024-03-02T09:22:19;12.20;65.40
57660;DHT22;43485;45.680;15.702;2024-03-02T09:24:45;12.30;65.40
57660;DHT22;43485;45.680;15.702;2024-03-02T09:27:11;12.50;65.40
57660;DHT22;43485;45.680;15.702;2024-03-02T09:29:37;12.60;64.70
57660;DHT22;43485;45.680;15.702;2024-03-02T09:32:03;12.70;64.90
57660;DHT22;43485;45.680;15.702;2024-03-02T09:34:31;12.70;63.80
57660;DHT22;43485;45.680;15.702;2024-03-02T09:36:57;12.80;64.20
57660;DHT22;43485;45.680;15.702;2024-03-02T09:39:23;13.00;63.60
57660;DHT22;43485;45.680;15.702;2024-03-02T09:41:50;13.70;62.40
57660;DHT22;43485;45.680;15.702;2024-03-02T09:44:17;14.90;60.10
57660;DHT22;43485;45.680;15.702;2024-03-02T09:46:43;15.80;58.30
57660;DHT22;43485;45.680;15.702;2024-03-02T09:51:53;16.20;55.40
57660;DHT22;43485;45.680;15.702;2024-03-02T09:54:19;16.50;55.30
57660;DHT22;43485;45.680;15.702;2024-03-02T09:56:46;17.40;53.60
57660;DHT22;43485;45.680;15.702;2024-03-02T09:59:12;18.40;52.20
57660;DHT22;43485;45.680;15.702;2024-03-02T10:01:55;19.50;49.50
57660;DHT22;43485;45.680;15.702;2024-03-02T10:04:39;19.90;47.50
57660;DHT22;43485;45.680;15.702;2024-03-02T10:09:49;20.10;44.10
57660;DHT22;43485;45.680;15.702;2024-03-02T10:12:17;20.00;45.40
57660;DHT22;43485;45.680;15.702;2024-03-02T10:14:44;19.90;44.00
57660;DHT22;43485;45.680;15.702;2024-03-02T10:17:11;19.90;45.00
57660;DHT22;43485;45.680;15.702;2024-03-02T10:19:37;20.80;42.20
57660;DHT22;43485;45.680;15.702;2024-03-02T10:22:05;21.20;40.00
57660;DHT22;43485;45.680;15.702;2024-03-02T10:30:03;20.70;42.50
57660;DHT22;43485;45.680;15.702;2024-03-02T10:32:31;21.30;41.40
57660;DHT22;43485;45.680;15.702;2024-03-02T10:34:57;22.00;37.90
57660;DHT22;43485;45.680;15.702;2024-03-02T10:37:23;22.30;38.70
57660;DHT22;43485;45.680;15.702;2024-03-02T10:39:49;22.10;37.60
57660;DHT22;43485;45.680;15.702;2024-03-02T10:42:17;22.20;37.10
57660;DHT22;43485;45.680;15.702;2024-03-02T10:44:45;23.20;36.10
57660;DHT22;43485;45.680;15.702;2024-03-02T10:47:11;23.90;35.50
57660;DHT22;43485;45.680;15.702;2024-03-02T10:49:38;23.60;35.50
57660;DHT22;43485;45.680;15.702;2024-03-02T10:52:04;24.50;35.00
57660;DHT22;43485;45.680;15.702;2024-03-02T10:54:30;25.50;31.10
57660;DHT22;43485;45.680;15.702;2024-03-02T10:57:01;26.10;30.40
57660;DHT22;43485;45.680;15.702;2024-03-02T11:01:58;23.90;33.50
57660;DHT22;43485;45.680;15.702;2024-03-02T11:04:26;24.10;32.70
57660;DHT22;43485;45.680;15.702;2024-03-02T11:15:14;21.80;35.10
57660;DHT22;43485;45.680;15.702;2024-03-02T11:17:43;22.30;35.10
57660;DHT22;43485;45.680;15.702;2024-03-02T11:20:09;23.60;32.70
57660;DHT22;43485;45.680;15.702;2024-03-02T11:22:36;23.50;31.00
57660;DHT22;43485;45.680;15.702;2024-03-02T11:25:02;23.10;31.80
57660;DHT22;43485;45.680;15.702;2024-03-02T11:33:33;21.10;35.80
57660;DHT22;43485;45.680;15.702;2024-03-02T11:35:59;20.70;36.40
57660;DHT22;43485;45.680;15.702;2024-03-02T11:38:30;20.70;37.30
57660;DHT22;43485;45.680;15.702;2024-03-02T11:40:59;21.10;36.60
57660;DHT22;43485;45.680;15.702;2024-03-02T11:43:27;23.40;34.20
57660;DHT22;43485;45.680;15.702;2024-03-02T11:46:00;26.30;30.00
57660;DHT22;43485;45.680;15.702;2024-03-02T11:48:29;25.20;28.80
57660;DHT22;43485;45.680;15.702;2024-03-02T11:50:57;24.20;29.60
57660;DHT22;43485;45.680;15.702;2024-03-02T11:53:24;24.30;29.70
57660;DHT22;43485;45.680;15.702;2024-03-02T11:55:54;24.00;29.10
57660;DHT22;43485;45.680;15.702;2024-03-02T11:58:21;24.10;28.90
57660;DHT22;43485;45.680;15.702;2024-03-02T12:03:34;24.30;28.90
57660;DHT22;43485;45.680;15.702;2024-03-02T12:06:00;24.60;28.20
57660;DHT22;43485;45.680;15.702;2024-03-02T12:08:26;24.10;27.80
57660;DHT22;43485;45.680;15.702;2024-03-02T12:13:38;22.70;31.30
57660;DHT22;43485;45.680;15.702;2024-03-02T12:16:04;22.30;31.90
57660;DHT22;43485;45.680;15.702;2024-03-02T12:18:30;21.80;32.00
57660;DHT22;43485;45.680;15.702;2024-03-02T12:20:56;21.70;33.30
57660;DHT22;43485;45.680;15.702;2024-03-02T12:23:22;21.20;33.90
57660;DHT22;43485;45.680;15.702;2024-03-02T12:25:48;20.90;34.20
57660;DHT22;43485;45.680;15.702;2024-03-02T12:28:14;20.70;34.00
57660;DHT22;43485;45.680;15.702;2024-03-02T12:30:40;20.60;34.00
57660;DHT22;43485;45.680;15.702;2024-03-02T12:33:06;20.50;35.00
57660;DHT22;43485;45.680;15.702;2024-03-02T12:35:32;20.20;36.30
57660;DHT22;43485;45.680;15.702;2024-03-02T12:37:58;20.30;35.70
57660;DHT22;43485;45.680;15.702;2024-03-02T12:40:24;20.70;35.40
57660;DHT22;43485;45.680;15.702;2024-03-02T12:42:50;21.40;34.60
57660;DHT22;43485;45.680;15.702;2024-03-02T12:45:16;21.90;33.00
57660;DHT22;43485;45.680;15.702;2024-03-02T12:47:49;23.70;31.30
57660;DHT22;43485;45.680;15.702;2024-03-02T12:50:15;23.60;29.30
57660;DHT22;43485;45.680;15.702;2024-03-02T12:52:41;23.10;29.70
57660;DHT22;43485;45.680;15.702;2024-03-02T12:55:07;22.50;31.90
57660;DHT22;43485;45.680;15.702;2024-03-02T12:57:33;22.20;32.30
57660;DHT22;43485;45.680;15.702;2024-03-02T13:05:10;23.00;30.50
57660;DHT22;43485;45.680;15.702;2024-03-02T13:10:21;25.00;29.40
57660;DHT22;43485;45.680;15.702;2024-03-02T13:12:47;26.90;25.60
57660;DHT22;43485;45.680;15.702;2024-03-02T13:15:13;29.80;23.40
57660;DHT22;43485;45.680;15.702;2024-03-02T13:17:40;32.10;20.40
57660;DHT22;43485;45.680;15.702;2024-03-02T13:20:06;33.80;17.70
57660;DHT22;43485;45.680;15.702;2024-03-02T13:22:35;34.00;17.90
57660;DHT22;43485;45.680;15.702;2024-03-02T13:25:02;31.10;18.70
57660;DHT22;43485;45.680;15.702;2024-03-02T13:27:29;28.00;20.90
57660;DHT22;43485;45.680;15.702;2024-03-02T13:29:57;27.80;23.10
57660;DHT22;43485;45.680;15.702;2024-03-02T13:32:23;29.90;21.50
57660;DHT22;43485;45.680;15.702;2024-03-02T13:34:51;32.80;19.50
57660;DHT22;43485;45.680;15.702;2024-03-02T13:37:17;33.70;16.60
57660;DHT22;43485;45.680;15.702;2024-03-02T13:39:43;31.50;18.80
57660;DHT22;43485;45.680;15.702;2024-03-02T13:42:09;29.40;21.00
57660;DHT22;43485;45.680;15.702;2024-03-02T13:44:36;27.80;22.40
57660;DHT22;43485;45.680;15.702;2024-03-02T13:47:02;27.10;23.90
57660;DHT22;43485;45.680;15.702;2024-03-02T13:49:29;27.80;23.20
57660;DHT22;43485;45.680;15.702;2024-03-02T13:51:59;30.20;21.30
57660;DHT22;43485;45.680;15.702;2024-03-02T13:54:28;31.70;19.40
57660;DHT22;43485;45.680;15.702;2024-03-02T13:56:55;32.50;18.90
57660;DHT22;43485;45.680;15.702;2024-03-02T13:59:23;31.20;19.60
57660;DHT22;43485;45.680;15.702;2024-03-02T14:01:50;30.50;20.40
57660;DHT22;43485;45.680;15.702;2024-03-02T14:04:16;31.30;19.60
57660;DHT22;43485;45.680;15.702;2024-03-02T14:06:42;32.30;19.00
57660;DHT22;43485;45.680;15.702;2024-03-02T14:09:09;34.70;17.20
57660;DHT22;43485;45.680;15.702;2024-03-02T14:11:35;36.50;14.90
57660;DHT22;43485;45.680;15.702;2024-03-02T14:14:01;37.50;14.80
57660;DHT22;43485;45.680;15.702;2024-03-02T14:16:27;37.60;14.30
57660;DHT22;43485;45.680;15.702;2024-03-02T14:18:53;38.20;13.40
57660;DHT22;43485;45.680;15.702;2024-03-02T14:21:19;37.80;13.20
57660;DHT22;43485;45.680;15.702;2024-03-02T14:23:45;35.70;14.90
57660;DHT22;43485;45.680;15.702;2024-03-02T14:26:11;33.80;16.80
57660;DHT22;43485;45.680;15.702;2024-03-02T14:28:37;33.00;17.50
57660;DHT22;43485;45.680;15.702;2024-03-02T14:31:03;31.80;17.70
57660;DHT22;43485;45.680;15.702;2024-03-02T14:33:29;31.80;17.10
57660;DHT22;43485;45.680;15.702;2024-03-02T14:35:55;30.50;19.00
57660;DHT22;43485;45.680;15.702;2024-03-02T14:38:21;29.00;20.70
57660;DHT22;43485;45.680;15.702;2024-03-02T14:40:47;27.70;21.70
57660;DHT22;43485;45.680;15.702;2024-03-02T14:43:13;26.50;22.90
57660;DHT22;43485;45.680;15.702;2024-03-02T14:45:39;25.70;24.10
57660;DHT22;43485;45.680;15.702;2024-03-02T14:48:05;24.90;25.30
57660;DHT22;43485;45.680;15.702;2024-03-02T14:50:31;24.00;26.40
57660;DHT22;43485;45.680;15.702;2024-03-02T14:52:57;23.60;27.40
57660;DHT22;43485;45.680;15.702;2024-03-02T14:55:23;23.10;27.90
57660;DHT22;43485;45.680;15.702;2024-03-02T14:57:49;22.70;28.00
57660;DHT22;43485;45.680;15.702;2024-03-02T15:00:15;22.40;28.00
57660;DHT22;43485;45.680;15.702;2024-03-02T15:02:41;22.10;29.20
57660;DHT22;43485;45.680;15.702;2024-03-02T15:05:07;22.00;28.70
57660;DHT22;43485;45.680;15.702;2024-03-02T15:07:34;21.80;28.70
57660;DHT22;43485;45.680;15.702;2024-03-02T15:10:00;21.80;28.80
57660;DHT22;43485;45.680;15.702;2024-03-02T15:12:26;21.80;29.60
57660;DHT22;43485;45.680;15.702;2024-03-02T15:14:52;21.70;29.70
57660;DHT22;43485;45.680;15.702;2024-03-02T15:17:18;21.50;30.70
57660;DHT22;43485;45.680;15.702;2024-03-02T15:19:44;21.30;28.90
57660;DHT22;43485;45.680;15.702;2024-03-02T15:22:11;21.10;29.00
57660;DHT22;43485;45.680;15.702;2024-03-02T15:24:37;20.70;30.70
57660;DHT22;43485;45.680;15.702;2024-03-02T15:27:04;20.90;32.50
57660;DHT22;43485;45.680;15.702;2024-03-02T15:29:31;21.50;32.30
57660;DHT22;43485;45.680;15.702;2024-03-02T15:31:57;22.70;30.40
57660;DHT22;43485;45.680;15.702;2024-03-02T15:34:23;22.30;29.90
57660;DHT22;43485;45.680;15.702;2024-03-02T15:36:50;21.70;30.70
57660;DHT22;43485;45.680;15.702;2024-03-02T15:39:16;21.00;32.50
57660;DHT22;43485;45.680;15.702;2024-03-02T15:44:27;20.00;34.70
57660;DHT22;43485;45.680;15.702;2024-03-02T15:46:53;19.80;35.20
57660;DHT22;43485;45.680;15.702;2024-03-02T15:49:19;19.60;36.10
57660;DHT22;43485;45.680;15.702;2024-03-02T15:51:45;19.30;36.50
57660;DHT22;43485;45.680;15.702;2024-03-02T15:54:10;18.90;37.10
57660;DHT22;43485;45.680;15.702;2024-03-02T15:56:37;18.70;37.60
57660;DHT22;43485;45.680;15.702;2024-03-02T15:59:03;18.40;37.30
57660;DHT22;43485;45.680;15.702;2024-03-02T16:01:31;18.40;38.60
57660;DHT22;43485;45.680;15.702;2024-03-02T16:03:57;18.10;38.40
57660;DHT22;43485;45.680;15.702;2024-03-02T16:06:23;18.00;38.80
57660;DHT22;43485;45.680;15.702;2024-03-02T16:08:49;17.90;39.20
57660;DHT22;43485;45.680;15.702;2024-03-02T16:11:14;17.80;39.30
57660;DHT22;43485;45.680;15.702;2024-03-02T16:13:40;17.70;39.50
57660;DHT22;43485;45.680;15.702;2024-03-02T16:16:06;17.60;40.10
57660;DHT22;43485;45.680;15.702;2024-03-02T16:18:32;17.60;40.70
57660;DHT22;43485;45.680;15.702;2024-03-02T16:20:59;17.50;41.50
57660;DHT22;43485;45.680;15.702;2024-03-02T16:23:25;17.40;41.70
57660;DHT22;43485;45.680;15.702;2024-03-02T16:25:51;17.20;42.10